sensor_id;sensor_type;location;lat;lon;timestamp;P1;durP1;ratioP1;P2;durP2;ratioP2
72645;SDS011;60687;53.876;10.674;2022-09-12T00:08:27;7.07;;;2.97;;
72645;SDS011;60687;53.876;10.674;2022-09-12T00:18:38;6.80;;;3.17;;
72645;SDS011;60687;53.876;10.674;2022-09-12T00:28:48;6.95;;;2.80;;
72645;SDS011;60687;53.876;10.674;2022-09-12T00:38:53;6.90;;;2.80;;
72645;SDS011;60687;53.876;10.674;2022-09-12T00:48:56;7.47;;;3.20;;
72645;SDS011;60687;53.876;10.674;2022-09-12T00:59:05;7.25;;;3.10;;
72645;SDS011;60687;53.876;10.674;2022-09-12T01:09:12;6.60;;;2.78;;
72645;SDS011;60687;53.876;10.674;2022-09-12T01:19:28;7.43;;;3.03;;
72645;SDS011;60687;53.876;10.674;2022-09-12T01:51:08;6.50;;;2.80;;
72645;SDS011;60687;53.876;10.674;2022-09-12T02:11:56;7.40;;;3.03;;
72645;SDS011;60687;53.876;10.674;2022-09-12T02:22:07;6.50;;;2.50;;
72645;SDS011;60687;53.876;10.674;2022-09-12T02:32:21;7.27;;;2.90;;
72645;SDS011;60687;53.876;10.674;2022-09-12T02:42:32;6.95;;;2.83;;
72645;SDS011;60687;53.876;10.674;2022-09-12T02:52:36;7.28;;;3.25;;
72645;SDS011;60687;53.876;10.674;2022-09-12T03:02:52;6.50;;;2.87;;
72645;SDS011;60687;53.876;10.674;2022-09-12T03:13:17;7.00;;;3.20;;
72645;SDS011;60687;53.876;10.674;2022-09-12T03:23:24;6.82;;;2.95;;
72645;SDS011;60687;53.876;10.674;2022-09-12T05:47:56;11.30;;;5.75;;
72645;SDS011;60687;53.876;10.674;2022-09-12T05:58:15;11.20;;;5.70;;
72645;SDS011;60687;53.876;10.674;2022-09-12T06:08:23;10.00;;;5.47;;
72645;SDS011;60687;53.876;10.674;2022-09-12T06:18:26;12.70;;;6.60;;
72645;SDS011;60687;53.876;10.674;2022-09-12T06:28:33;12.88;;;6.65;;
72645;SDS011;60687;53.876;10.674;2022-09-12T06:38:37;11.23;;;6.07;;
72645;SDS011;60687;53.876;10.674;2022-09-12T06:48:41;11.10;;;5.90;;
72645;SDS011;60687;53.876;10.674;2022-09-12T06:58:44;10.15;;;5.32;;
72645;SDS011;60687;53.876;10.674;2022-09-12T07:08:49;10.97;;;4.83;;
72645;SDS011;60687;53.876;10.674;2022-09-12T07:18:53;9.67;;;5.00;;
72645;SDS011;60687;53.876;10.674;2022-09-12T07:29:00;12.93;;;6.43;;
72645;SDS011;60687;53.876;10.674;2022-09-12T07:39:03;8.67;;;4.63;;
72645;SDS011;60687;53.876;10.674;2022-09-12T07:49:10;10.03;;;4.47;;
72645;SDS011;60687;53.876;10.674;2022-09-12T07:59:19;8.20;;;2.92;;
72645;SDS011;60687;53.876;10.674;2022-09-12T08:19:57;7.17;;;2.37;;
72645;SDS011;60687;53.876;10.674;2022-09-12T08:30:01;5.20;;;1.80;;
72645;SDS011;60687;53.876;10.674;2022-09-12T08:40:07;5.57;;;1.77;;
72645;SDS011;60687;53.876;10.674;2022-09-12T08:50:18;7.03;;;2.30;;
72645;SDS011;60687;53.876;10.674;2022-09-12T09:00:26;6.47;;;2.00;;
72645;SDS011;60687;53.876;10.674;2022-09-12T09:10:45;4.63;;;1.42;;
72645;SDS011;60687;53.876;10.674;2022-09-12T09:20:52;6.50;;;1.67;;
72645;SDS011;60687;53.876;10.674;2022-09-12T09:31:13;4.60;;;1.60;;
72645;SDS011;60687;53.876;10.674;2022-09-12T09:41:24;8.68;;;3.72;;
72645;SDS011;60687;53.876;10.674;2022-09-12T09:51:42;6.43;;;2.13;;
72645;SDS011;60687;53.876;10.674;2022-09-12T10:02:02;6.60;;;1.57;;
72645;SDS011;60687;53.876;10.674;2022-09-12T10:12:28;4.43;;;1.50;;
72645;SDS011;60687;53.876;10.674;2022-09-12T10:22:33;5.45;;;1.60;;
72645;SDS011;60687;53.876;10.674;2022-09-12T10:32:48;6.87;;;1.87;;
72645;SDS011;60687;53.876;10.674;2022-09-12T10:43:15;4.73;;;1.43;;
72645;SDS011;60687;53.876;10.674;2022-09-12T10:53:22;4.18;;;1.23;;
72645;SDS011;60687;53.876;10.674;2022-09-12T11:03:44;4.77;;;1.40;;
72645;SDS011;60687;53.876;10.674;2022-09-12T11:13:58;4.40;;;1.33;;
72645;SDS011;60687;53.876;10.674;2022-09-12T11:24:14;4.88;;;1.55;;
72645;SDS011;60687;53.876;10.674;2022-09-12T11:34:33;5.73;;;1.70;;
72645;SDS011;60687;53.876;10.674;2022-09-12T11:44:42;6.40;;;1.60;;
72645;SDS011;60687;53.876;10.674;2022-09-12T11:54:55;10.37;;;1.93;;
72645;SDS011;60687;53.876;10.674;2022-09-12T12:15:45;6.70;;;1.90;;
72645;SDS011;60687;53.876;10.674;2022-09-12T12:25:54;12.13;;;1.52;;
72645;SDS011;60687;53.876;10.674;2022-09-12T12:46:45;3.90;;;1.10;;
72645;SDS011;60687;53.876;10.674;2022-09-12T12:57:15;4.82;;;1.67;;
72645;SDS011;60687;53.876;10.674;2022-09-12T13:17:59;5.03;;;1.40;;
72645;SDS011;60687;53.876;10.674;2022-09-12T13:28:06;11.15;;;1.83;;
72645;SDS011;60687;53.876;10.674;2022-09-12T13:58:59;4.63;;;1.40;;
72645;SDS011;60687;53.876;10.674;2022-09-12T14:09:13;5.20;;;1.80;;
72645;SDS011;60687;53.876;10.674;2022-09-12T14:19:18;7.70;;;1.67;;
72645;SDS011;60687;53.876;10.674;2022-09-12T14:29:24;6.30;;;1.60;;
72645;SDS011;60687;53.876;10.674;2022-09-12T14:39:30;8.57;;;1.90;;
72645;SDS011;60687;53.876;10.674;2022-09-12T14:49:33;5.80;;;1.70;;
72645;SDS011;60687;53.876;10.674;2022-09-12T14:59:42;5.37;;;1.80;;
72645;SDS011;60687;53.876;10.674;2022-09-12T15:09:44;6.00;;;1.90;;
72645;SDS011;60687;53.876;10.674;2022-09-12T15:19:51;5.13;;;1.80;;
72645;SDS011;60687;53.876;10.674;2022-09-12T15:29:54;6.17;;;2.00;;
72645;SDS011;60687;53.876;10.674;2022-09-12T15:50:53;5.70;;;1.83;;
72645;SDS011;60687;53.876;10.674;2022-09-12T16:21:23;5.00;;;1.60;;
72645;SDS011;60687;53.876;10.674;2022-09-12T16:31:29;5.40;;;1.77;;
72645;SDS011;60687;53.876;10.674;2022-09-12T16:41:43;5.60;;;1.90;;
72645;SDS011;60687;53.876;10.674;2022-09-12T16:51:48;4.72;;;1.80;;
72645;SDS011;60687;53.876;10.674;2022-09-12T17:01:57;5.97;;;2.30;;
72645;SDS011;60687;53.876;10.674;2022-09-12T17:12:01;5.33;;;2.00;;
72645;SDS011;60687;53.876;10.674;2022-09-12T17:22:10;6.35;;;2.50;;
72645;SDS011;60687;53.876;10.674;2022-09-12T17:32:25;6.07;;;2.30;;
72645;SDS011;60687;53.876;10.674;2022-09-12T17:52:57;5.13;;;2.00;;
72645;SDS011;60687;53.876;10.674;2022-09-12T18:03:00;6.53;;;2.47;;
72645;SDS011;60687;53.876;10.674;2022-09-12T18:13:06;6.10;;;2.40;;
72645;SDS011;60687;53.876;10.674;2022-09-12T18:33:59;5.45;;;1.92;;
72645;SDS011;60687;53.876;10.674;2022-09-12T18:44:02;6.17;;;1.97;;
72645;SDS011;60687;53.876;10.674;2022-09-12T18:54:10;6.10;;;2.17;;
72645;SDS011;60687;53.876;10.674;2022-09-12T19:04:14;6.05;;;2.60;;
72645;SDS011;60687;53.876;10.674;2022-09-12T19:24:53;8.90;;;2.73;;
72645;SDS011;60687;53.876;10.674;2022-09-12T19:35:25;6.13;;;2.53;;
72645;SDS011;60687;53.876;10.674;2022-09-12T19:45:28;5.80;;;2.40;;
72645;SDS011;60687;53.876;10.674;2022-09-12T19:55:37;7.80;;;2.40;;
72645;SDS011;60687;53.876;10.674;2022-09-12T20:16:18;6.07;;;2.58;;
72645;SDS011;60687;53.876;10.674;2022-09-12T20:36:58;5.80;;;2.23;;
72645;SDS011;60687;53.876;10.674;2022-09-12T20:47:03;6.55;;;2.50;;
72645;SDS011;60687;53.876;10.674;2022-09-12T21:07:10;6.10;;;2.40;;
72645;SDS011;60687;53.876;10.674;2022-09-12T21:17:20;5.70;;;2.42;;
72645;SDS011;60687;53.876;10.674;2022-09-12T21:27:26;5.50;;;2.30;;
72645;SDS011;60687;53.876;10.674;2022-09-12T21:37:50;6.03;;;2.10;;
72645;SDS011;60687;53.876;10.674;2022-09-12T21:48:07;5.70;;;2.30;;
72645;SDS011;60687;53.876;10.674;2022-09-12T21:58:22;5.28;;;1.98;;
72645;SDS011;60687;53.876;10.674;2022-09-12T22:08:28;5.87;;;2.20;;
72645;SDS011;60687;53.876;10.674;2022-09-12T22:18:33;6.37;;;2.30;;
72645;SDS011;60687;53.876;10.674;2022-09-12T22:28:40;5.65;;;2.10;;
72645;SDS011;60687;53.876;10.674;2022-09-12T22:38:46;5.37;;;1.90;;
72645;SDS011;60687;53.876;10.674;2022-09-12T22:49:22;5.33;;;1.70;;
72645;SDS011;60687;53.876;10.674;2022-09-12T22:59:33;6.47;;;2.47;;
72645;SDS011;60687;53.876;10.674;2022-09-12T23:20:07;5.43;;;2.20;;
72645;SDS011;60687;53.876;10.674;2022-09-12T23:30:39;5.67;;;2.40;;
72645;SDS011;60687;53.876;10.674;2022-09-12T23:40:44;6.25;;;2.45;;
72645;SDS011;60687;53.876;10.674;2022-09-12T23:50:52;5.37;;;1.90;;
